sensor_id;sensor_type;location;lat;lon;timestamp;P1;durP1;ratioP1;P2;durP2;ratioP2
12267;SDS011;6196;48.398;11.736;2023-10-09T00:01:50;9.97;;;5.53;;
12267;SDS011;6196;48.398;11.736;2023-10-09T00:04:18;12.47;;;5.80;;
12267;SDS011;6196;48.398;11.736;2023-10-09T00:06:47;8.50;;;5.10;;
12267;SDS011;6196;48.398;11.736;2023-10-09T00:09:15;10.77;;;5.30;;
12267;SDS011;6196;48.398;11.736;2023-10-09T00:11:51;5.93;;;4.20;;
12267;SDS011;6196;48.398;11.736;2023-10-09T00:14:28;7.63;;;5.30;;
12267;SDS011;6196;48.398;11.736;2023-10-09T00:16:56;10.93;;;5.30;;
12267;SDS011;6196;48.398;11.736;2023-10-09T00:19:35;7.20;;;4.47;;
12267;SDS011;6196;48.398;11.736;2023-10-09T00:22:03;8.77;;;5.00;;
12267;SDS011;6196;48.398;11.736;2023-10-09T00:24:50;9.33;;;5.30;;
12267;SDS011;6196;48.398;11.736;2023-10-09T00:27:36;8.90;;;5.17;;
12267;SDS011;6196;48.398;11.736;2023-10-09T00:30:12;8.40;;;5.00;;
12267;SDS011;6196;48.398;11.736;2023-10-09T00:32:45;10.37;;;5.20;;
12267;SDS011;6196;48.398;11.736;2023-10-09T00:35:23;7.57;;;5.30;;
12267;SDS011;6196;48.398;11.736;2023-10-09T00:38:08;9.63;;;5.27;;
12267;SDS011;6196;48.398;11.736;2023-10-09T00:40:47;9.33;;;5.63;;
12267;SDS011;6196;48.398;11.736;2023-10-09T00:43:37;9.03;;;5.07;;
12267;SDS011;6196;48.398;11.736;2023-10-09T00:46:09;9.70;;;5.37;;
12267;SDS011;6196;48.398;11.736;2023-10-09T00:48:42;10.27;;;5.27;;
12267;SDS011;6196;48.398;11.736;2023-10-09T00:51:15;9.43;;;5.63;;
12267;SDS011;6196;48.398;11.736;2023-10-09T00:53:56;8.93;;;5.10;;
12267;SDS011;6196;48.398;11.736;2023-10-09T00:56:25;6.73;;;4.70;;
12267;SDS011;6196;48.398;11.736;2023-10-09T00:58:54;8.00;;;5.10;;
12267;SDS011;6196;48.398;11.736;2023-10-09T01:01:43;6.07;;;4.57;;
12267;SDS011;6196;48.398;11.736;2023-10-09T01:04:16;8.30;;;5.30;;
12267;SDS011;6196;48.398;11.736;2023-10-09T01:06:46;10.90;;;5.47;;
12267;SDS011;6196;48.398;11.736;2023-10-09T01:09:32;10.43;;;5.47;;
12267;SDS011;6196;48.398;11.736;2023-10-09T01:12:08;10.10;;;5.50;;
12267;SDS011;6196;48.398;11.736;2023-10-09T01:14:43;12.00;;;5.90;;
12267;SDS011;6196;48.398;11.736;2023-10-09T01:17:11;11.60;;;5.73;;
12267;SDS011;6196;48.398;11.736;2023-10-09T01:19:44;8.73;;;5.47;;
12267;SDS011;6196;48.398;11.736;2023-10-09T01:22:13;11.40;;;5.50;;
12267;SDS011;6196;48.398;11.736;2023-10-09T01:24:42;12.97;;;6.30;;
12267;SDS011;6196;48.398;11.736;2023-10-09T01:27:10;10.97;;;6.60;;
12267;SDS011;6196;48.398;11.736;2023-10-09T01:29:43;11.93;;;6.17;;
12267;SDS011;6196;48.398;11.736;2023-10-09T01:32:12;11.23;;;6.13;;
12267;SDS011;6196;48.398;11.736;2023-10-09T01:34:43;8.80;;;6.20;;
12267;SDS011;6196;48.398;11.736;2023-10-09T01:37:18;11.43;;;6.20;;
12267;SDS011;6196;48.398;11.736;2023-10-09T01:39:52;15.90;;;6.90;;
12267;SDS011;6196;48.398;11.736;2023-10-09T01:42:46;12.73;;;6.30;;
12267;SDS011;6196;48.398;11.736;2023-10-09T01:45:13;11.17;;;6.57;;
12267;SDS011;6196;48.398;11.736;2023-10-09T01:47:46;12.47;;;6.10;;
12267;SDS011;6196;48.398;11.736;2023-10-09T01:50:21;9.47;;;6.23;;
12267;SDS011;6196;48.398;11.736;2023-10-09T01:52:51;11.57;;;6.70;;
12267;SDS011;6196;48.398;11.736;2023-10-09T01:55:18;12.10;;;5.80;;
12267;SDS011;6196;48.398;11.736;2023-10-09T01:58:14;10.57;;;6.13;;
12267;SDS011;6196;48.398;11.736;2023-10-09T02:00:47;10.83;;;6.60;;
12267;SDS011;6196;48.398;11.736;2023-10-09T02:03:16;12.33;;;6.03;;
12267;SDS011;6196;48.398;11.736;2023-10-09T02:05:44;11.37;;;6.10;;
12267;SDS011;6196;48.398;11.736;2023-10-09T02:08:11;9.43;;;6.23;;
12267;SDS011;6196;48.398;11.736;2023-10-09T02:10:39;11.57;;;6.43;;
12267;SDS011;6196;48.398;11.736;2023-10-09T02:13:06;9.27;;;6.07;;
12267;SDS011;6196;48.398;11.736;2023-10-09T02:15:36;9.77;;;6.40;;
12267;SDS011;6196;48.398;11.736;2023-10-09T02:18:11;11.13;;;6.07;;
12267;SDS011;6196;48.398;11.736;2023-10-09T02:23:28;10.13;;;5.87;;
12267;SDS011;6196;48.398;11.736;2023-10-09T02:26:07;11.07;;;5.20;;
12267;SDS011;6196;48.398;11.736;2023-10-09T02:28:35;11.90;;;6.50;;
12267;SDS011;6196;48.398;11.736;2023-10-09T02:31:12;9.47;;;6.03;;
12267;SDS011;6196;48.398;11.736;2023-10-09T02:33:39;11.20;;;6.23;;
12267;SDS011;6196;48.398;11.736;2023-10-09T02:36:07;9.83;;;5.67;;
12267;SDS011;6196;48.398;11.736;2023-10-09T02:38:34;13.47;;;6.53;;
12267;SDS011;6196;48.398;11.736;2023-10-09T02:41:08;12.37;;;5.07;;
12267;SDS011;6196;48.398;11.736;2023-10-09T02:43:38;8.13;;;4.80;;
12267;SDS011;6196;48.398;11.736;2023-10-09T02:46:11;7.17;;;4.53;;
12267;SDS011;6196;48.398;11.736;2023-10-09T02:48:56;6.33;;;4.53;;
12267;SDS011;6196;48.398;11.736;2023-10-09T02:51:30;6.23;;;4.10;;
12267;SDS011;6196;48.398;11.736;2023-10-09T02:54:07;9.67;;;5.17;;
12267;SDS011;6196;48.398;11.736;2023-10-09T02:56:46;6.63;;;4.67;;
12267;SDS011;6196;48.398;11.736;2023-10-09T02:59:34;7.33;;;4.70;;
12267;SDS011;6196;48.398;11.736;2023-10-09T03:02:05;7.60;;;4.30;;
12267;SDS011;6196;48.398;11.736;2023-10-09T03:04:32;8.07;;;5.17;;
12267;SDS011;6196;48.398;11.736;2023-10-09T03:06:59;10.20;;;5.50;;
12267;SDS011;6196;48.398;11.736;2023-10-09T03:09:27;7.70;;;5.07;;
12267;SDS011;6196;48.398;11.736;2023-10-09T03:11:56;8.43;;;5.63;;
12267;SDS011;6196;48.398;11.736;2023-10-09T03:14:33;9.60;;;5.60;;
12267;SDS011;6196;48.398;11.736;2023-10-09T03:17:04;10.90;;;5.70;;
12267;SDS011;6196;48.398;11.736;2023-10-09T03:19:33;11.63;;;5.83;;
12267;SDS011;6196;48.398;11.736;2023-10-09T03:22:06;14.33;;;6.17;;
12267;SDS011;6196;48.398;11.736;2023-10-09T03:24:38;10.10;;;5.47;;
12267;SDS011;6196;48.398;11.736;2023-10-09T03:27:12;10.40;;;5.27;;
12267;SDS011;6196;48.398;11.736;2023-10-09T03:29:40;7.93;;;5.73;;
12267;SDS011;6196;48.398;11.736;2023-10-09T03:32:08;10.40;;;6.03;;
12267;SDS011;6196;48.398;11.736;2023-10-09T03:34:35;10.33;;;6.37;;
12267;SDS011;6196;48.398;11.736;2023-10-09T03:37:02;10.67;;;5.60;;
12267;SDS011;6196;48.398;11.736;2023-10-09T03:39:32;10.33;;;5.13;;
12267;SDS011;6196;48.398;11.736;2023-10-09T03:42:00;13.83;;;5.87;;
12267;SDS011;6196;48.398;11.736;2023-10-09T03:44:32;10.63;;;5.30;;
12267;SDS011;6196;48.398;11.736;2023-10-09T03:47:00;12.37;;;6.07;;
12267;SDS011;6196;48.398;11.736;2023-10-09T03:49:31;10.47;;;5.43;;
12267;SDS011;6196;48.398;11.736;2023-10-09T03:51:58;5.87;;;4.70;;
12267;SDS011;6196;48.398;11.736;2023-10-09T03:54:25;8.77;;;4.63;;
12267;SDS011;6196;48.398;11.736;2023-10-09T03:56:56;8.20;;;4.33;;
12267;SDS011;6196;48.398;11.736;2023-10-09T03:59:25;5.80;;;4.30;;
12267;SDS011;6196;48.398;11.736;2023-10-09T04:01:56;10.27;;;4.87;;
12267;SDS011;6196;48.398;11.736;2023-10-09T04:04:24;10.33;;;5.17;;
12267;SDS011;6196;48.398;11.736;2023-10-09T04:06:51;10.10;;;5.57;;
12267;SDS011;6196;48.398;11.736;2023-10-09T04:09:18;9.47;;;5.43;;
12267;SDS011;6196;48.398;11.736;2023-10-09T04:11:52;12.00;;;5.70;;
12267;SDS011;6196;48.398;11.736;2023-10-09T04:14:43;8.63;;;4.97;;
12267;SDS011;6196;48.398;11.736;2023-10-09T04:17:21;10.83;;;5.67;;
12267;SDS011;6196;48.398;11.736;2023-10-09T04:19:49;11.97;;;6.20;;
12267;SDS011;6196;48.398;11.736;2023-10-09T04:22:36;12.67;;;5.80;;
12267;SDS011;6196;48.398;11.736;2023-10-09T04:25:19;13.67;;;6.30;;
12267;SDS011;6196;48.398;11.736;2023-10-09T04:27:55;11.77;;;6.10;;
12267;SDS011;6196;48.398;11.736;2023-10-09T04:30:37;11.63;;;5.97;;
12267;SDS011;6196;48.398;11.736;2023-10-09T04:33:09;11.37;;;5.50;;
12267;SDS011;6196;48.398;11.736;2023-10-09T04:35:55;15.13;;;6.23;;
12267;SDS011;6196;48.398;11.736;2023-10-09T04:38:51;10.47;;;5.33;;
12267;SDS011;6196;48.398;11.736;2023-10-09T04:41:42;13.07;;;6.37;;
12267;SDS011;6196;48.398;11.736;2023-10-09T04:44:09;9.93;;;5.40;;
12267;SDS011;6196;48.398;11.736;2023-10-09T04:46:47;9.53;;;5.23;;
12267;SDS011;6196;48.398;11.736;2023-10-09T04:49:38;13.97;;;6.10;;
12267;SDS011;6196;48.398;11.736;2023-10-09T04:52:18;11.60;;;5.90;;
12267;SDS011;6196;48.398;11.736;2023-10-09T04:54:51;12.03;;;5.97;;
12267;SDS011;6196;48.398;11.736;2023-10-09T04:57:40;11.67;;;6.17;;
12267;SDS011;6196;48.398;11.736;2023-10-09T05:02:55;8.57;;;5.40;;
12267;SDS011;6196;48.398;11.736;2023-10-09T05:05:35;12.40;;;6.37;;
12267;SDS011;6196;48.398;11.736;2023-10-09T05:08:05;10.60;;;5.47;;
12267;SDS011;6196;48.398;11.736;2023-10-09T05:10:49;10.70;;;5.23;;
12267;SDS011;6196;48.398;11.736;2023-10-09T05:13:34;12.83;;;6.00;;
12267;SDS011;6196;48.398;11.736;2023-10-09T05:18:42;12.97;;;5.40;;
12267;SDS011;6196;48.398;11.736;2023-10-09T05:21:11;13.40;;;6.30;;
12267;SDS011;6196;48.398;11.736;2023-10-09T05:23:39;13.83;;;6.37;;
12267;SDS011;6196;48.398;11.736;2023-10-09T05:26:35;9.37;;;5.50;;
12267;SDS011;6196;48.398;11.736;2023-10-09T05:29:25;9.90;;;5.53;;
12267;SDS011;6196;48.398;11.736;2023-10-09T05:31:55;10.40;;;5.10;;
12267;SDS011;6196;48.398;11.736;2023-10-09T05:34:40;10.53;;;4.97;;
12267;SDS011;6196;48.398;11.736;2023-10-09T05:37:27;9.43;;;5.00;;
12267;SDS011;6196;48.398;11.736;2023-10-09T05:40:00;12.07;;;5.60;;
12267;SDS011;6196;48.398;11.736;2023-10-09T05:42:43;10.60;;;4.70;;
12267;SDS011;6196;48.398;11.736;2023-10-09T05:45:13;8.70;;;5.00;;
12267;SDS011;6196;48.398;11.736;2023-10-09T05:47:46;15.23;;;5.77;;
12267;SDS011;6196;48.398;11.736;2023-10-09T05:50:23;8.60;;;5.00;;
12267;SDS011;6196;48.398;11.736;2023-10-09T05:52:55;13.30;;;5.63;;
12267;SDS011;6196;48.398;11.736;2023-10-09T05:55:29;10.13;;;5.67;;
12267;SDS011;6196;48.398;11.736;2023-10-09T05:58:03;11.37;;;5.27;;
12267;SDS011;6196;48.398;11.736;2023-10-09T06:00:49;10.90;;;5.33;;
12267;SDS011;6196;48.398;11.736;2023-10-09T06:03:35;10.93;;;6.07;;
12267;SDS011;6196;48.398;11.736;2023-10-09T06:06:15;12.03;;;5.77;;
12267;SDS011;6196;48.398;11.736;2023-10-09T06:09:04;13.63;;;6.00;;
12267;SDS011;6196;48.398;11.736;2023-10-09T06:11:43;18.03;;;6.33;;
12267;SDS011;6196;48.398;11.736;2023-10-09T06:14:18;10.30;;;5.90;;
12267;SDS011;6196;48.398;11.736;2023-10-09T06:16:56;11.47;;;5.60;;
12267;SDS011;6196;48.398;11.736;2023-10-09T06:19:27;11.70;;;5.40;;
12267;SDS011;6196;48.398;11.736;2023-10-09T06:21:55;13.57;;;6.47;;
12267;SDS011;6196;48.398;11.736;2023-10-09T06:24:43;10.97;;;5.80;;
12267;SDS011;6196;48.398;11.736;2023-10-09T06:27:19;13.43;;;5.53;;
12267;SDS011;6196;48.398;11.736;2023-10-09T06:29:57;15.70;;;6.57;;
12267;SDS011;6196;48.398;11.736;2023-10-09T06:32:43;9.37;;;5.60;;
12267;SDS011;6196;48.398;11.736;2023-10-09T06:35:29;13.73;;;5.77;;
12267;SDS011;6196;48.398;11.736;2023-10-09T06:38:02;12.77;;;5.83;;
12267;SDS011;6196;48.398;11.736;2023-10-09T06:40:33;10.30;;;5.57;;
12267;SDS011;6196;48.398;11.736;2023-10-09T06:43:05;13.93;;;5.73;;
12267;SDS011;6196;48.398;11.736;2023-10-09T06:45:55;9.40;;;5.00;;
12267;SDS011;6196;48.398;11.736;2023-10-09T06:48:25;14.60;;;5.50;;
12267;SDS011;6196;48.398;11.736;2023-10-09T06:51:07;14.20;;;5.53;;
12267;SDS011;6196;48.398;11.736;2023-10-09T06:53:52;11.87;;;4.67;;
12267;SDS011;6196;48.398;11.736;2023-10-09T06:56:23;11.93;;;4.80;;
12267;SDS011;6196;48.398;11.736;2023-10-09T07:01:31;8.63;;;4.67;;
12267;SDS011;6196;48.398;11.736;2023-10-09T07:04:12;8.23;;;4.60;;
12267;SDS011;6196;48.398;11.736;2023-10-09T07:07:06;10.17;;;4.80;;
12267;SDS011;6196;48.398;11.736;2023-10-09T07:09:36;9.93;;;4.77;;
12267;SDS011;6196;48.398;11.736;2023-10-09T07:12:10;12.93;;;4.73;;
12267;SDS011;6196;48.398;11.736;2023-10-09T07:14:40;11.20;;;4.53;;
12267;SDS011;6196;48.398;11.736;2023-10-09T07:17:08;11.93;;;4.50;;
12267;SDS011;6196;48.398;11.736;2023-10-09T07:19:43;12.60;;;4.27;;
12267;SDS011;6196;48.398;11.736;2023-10-09T07:22:13;11.50;;;4.17;;
12267;SDS011;6196;48.398;11.736;2023-10-09T07:24:46;15.60;;;4.67;;
12267;SDS011;6196;48.398;11.736;2023-10-09T07:27:28;15.60;;;3.80;;
12267;SDS011;6196;48.398;11.736;2023-10-09T07:30:09;11.60;;;4.20;;
12267;SDS011;6196;48.398;11.736;2023-10-09T07:33:07;13.73;;;4.30;;
12267;SDS011;6196;48.398;11.736;2023-10-09T07:35:34;11.40;;;3.43;;
12267;SDS011;6196;48.398;11.736;2023-10-09T07:38:21;13.37;;;4.17;;
12267;SDS011;6196;48.398;11.736;2023-10-09T07:40:55;10.73;;;4.47;;
12267;SDS011;6196;48.398;11.736;2023-10-09T07:43:32;12.23;;;4.33;;
12267;SDS011;6196;48.398;11.736;2023-10-09T07:46:15;15.53;;;3.70;;
12267;SDS011;6196;48.398;11.736;2023-10-09T07:48:57;10.33;;;3.87;;
12267;SDS011;6196;48.398;11.736;2023-10-09T07:51:35;16.03;;;4.57;;
12267;SDS011;6196;48.398;11.736;2023-10-09T07:54:04;10.13;;;3.67;;
12267;SDS011;6196;48.398;11.736;2023-10-09T07:56:37;12.23;;;3.97;;
12267;SDS011;6196;48.398;11.736;2023-10-09T07:59:12;14.70;;;3.93;;
12267;SDS011;6196;48.398;11.736;2023-10-09T08:01:40;15.00;;;4.00;;
12267;SDS011;6196;48.398;11.736;2023-10-09T08:04:19;18.00;;;4.23;;
12267;SDS011;6196;48.398;11.736;2023-10-09T08:07:08;13.47;;;4.93;;
12267;SDS011;6196;48.398;11.736;2023-10-09T08:10:03;19.73;;;4.37;;
12267;SDS011;6196;48.398;11.736;2023-10-09T08:12:40;15.43;;;3.90;;
12267;SDS011;6196;48.398;11.736;2023-10-09T08:15:11;10.67;;;3.60;;
12267;SDS011;6196;48.398;11.736;2023-10-09T08:17:45;13.50;;;3.90;;
12267;SDS011;6196;48.398;11.736;2023-10-09T08:20:30;11.37;;;4.07;;
12267;SDS011;6196;48.398;11.736;2023-10-09T08:23:16;10.07;;;3.77;;
12267;SDS011;6196;48.398;11.736;2023-10-09T08:26:02;13.27;;;4.13;;
12267;SDS011;6196;48.398;11.736;2023-10-09T08:28:43;15.93;;;4.00;;
12267;SDS011;6196;48.398;11.736;2023-10-09T08:31:16;20.33;;;4.60;;
12267;SDS011;6196;48.398;11.736;2023-10-09T08:34:00;10.70;;;3.90;;
12267;SDS011;6196;48.398;11.736;2023-10-09T08:36:31;15.60;;;4.37;;
12267;SDS011;6196;48.398;11.736;2023-10-09T08:39:04;9.87;;;3.70;;
12267;SDS011;6196;48.398;11.736;2023-10-09T08:41:51;13.27;;;3.97;;
12267;SDS011;6196;48.398;11.736;2023-10-09T08:44:19;8.83;;;3.83;;
12267;SDS011;6196;48.398;11.736;2023-10-09T08:46:51;12.40;;;4.63;;
12267;SDS011;6196;48.398;11.736;2023-10-09T08:49:20;12.53;;;3.43;;
12267;SDS011;6196;48.398;11.736;2023-10-09T08:51:50;14.60;;;4.17;;
12267;SDS011;6196;48.398;11.736;2023-10-09T08:54:21;12.17;;;4.07;;
12267;SDS011;6196;48.398;11.736;2023-10-09T08:56:48;17.83;;;4.00;;
12267;SDS011;6196;48.398;11.736;2023-10-09T08:59:18;15.97;;;4.27;;
12267;SDS011;6196;48.398;11.736;2023-10-09T09:01:46;13.73;;;4.87;;
12267;SDS011;6196;48.398;11.736;2023-10-09T09:07:06;15.47;;;4.40;;
12267;SDS011;6196;48.398;11.736;2023-10-09T09:09:55;13.33;;;4.10;;
12267;SDS011;6196;48.398;11.736;2023-10-09T09:12:23;7.50;;;3.50;;
12267;SDS011;6196;48.398;11.736;2023-10-09T09:14:54;17.43;;;4.40;;
12267;SDS011;6196;48.398;11.736;2023-10-09T09:17:29;12.80;;;4.23;;
12267;SDS011;6196;48.398;11.736;2023-10-09T09:19:59;12.37;;;3.80;;
12267;SDS011;6196;48.398;11.736;2023-10-09T09:22:55;15.23;;;4.70;;
12267;SDS011;6196;48.398;11.736;2023-10-09T09:25:23;13.03;;;4.10;;
12267;SDS011;6196;48.398;11.736;2023-10-09T09:27:51;14.97;;;4.17;;
12267;SDS011;6196;48.398;11.736;2023-10-09T09:30:22;15.07;;;4.50;;
12267;SDS011;6196;48.398;11.736;2023-10-09T09:32:51;14.43;;;3.80;;
12267;SDS011;6196;48.398;11.736;2023-10-09T09:35:37;13.00;;;4.20;;
12267;SDS011;6196;48.398;11.736;2023-10-09T09:38:08;11.13;;;3.83;;
12267;SDS011;6196;48.398;11.736;2023-10-09T09:40:43;12.37;;;4.13;;
12267;SDS011;6196;48.398;11.736;2023-10-09T09:43:11;13.00;;;4.03;;
12267;SDS011;6196;48.398;11.736;2023-10-09T09:45:48;13.97;;;4.50;;
12267;SDS011;6196;48.398;11.736;2023-10-09T09:48:19;15.73;;;4.07;;
12267;SDS011;6196;48.398;11.736;2023-10-09T09:50:46;14.67;;;5.40;;
12267;SDS011;6196;48.398;11.736;2023-10-09T09:53:14;15.60;;;4.47;;
12267;SDS011;6196;48.398;11.736;2023-10-09T09:58:25;12.50;;;3.93;;
12267;SDS011;6196;48.398;11.736;2023-10-09T10:01:09;16.33;;;4.83;;
12267;SDS011;6196;48.398;11.736;2023-10-09T10:03:56;11.43;;;4.03;;
12267;SDS011;6196;48.398;11.736;2023-10-09T10:06:30;19.03;;;4.20;;
12267;SDS011;6196;48.398;11.736;2023-10-09T10:08:59;20.20;;;4.63;;
12267;SDS011;6196;48.398;11.736;2023-10-09T10:11:45;13.47;;;3.53;;
12267;SDS011;6196;48.398;11.736;2023-10-09T10:14:18;12.13;;;4.27;;
12267;SDS011;6196;48.398;11.736;2023-10-09T10:17:02;13.87;;;3.70;;
12267;SDS011;6196;48.398;11.736;2023-10-09T10:22:42;14.07;;;3.50;;
12267;SDS011;6196;48.398;11.736;2023-10-09T10:25:31;12.40;;;4.10;;
12267;SDS011;6196;48.398;11.736;2023-10-09T10:28:21;15.50;;;4.07;;
12267;SDS011;6196;48.398;11.736;2023-10-09T10:31:06;13.27;;;4.53;;
12267;SDS011;6196;48.398;11.736;2023-10-09T10:36:22;16.40;;;4.40;;
12267;SDS011;6196;48.398;11.736;2023-10-09T10:41:38;17.80;;;4.27;;
12267;SDS011;6196;48.398;11.736;2023-10-09T10:44:30;16.30;;;4.97;;
12267;SDS011;6196;48.398;11.736;2023-10-09T10:47:09;13.93;;;4.07;;
12267;SDS011;6196;48.398;11.736;2023-10-09T10:49:52;11.67;;;3.97;;
12267;SDS011;6196;48.398;11.736;2023-10-09T10:52:34;14.57;;;4.83;;
12267;SDS011;6196;48.398;11.736;2023-10-09T10:55:12;12.37;;;4.00;;
12267;SDS011;6196;48.398;11.736;2023-10-09T10:58:14;11.97;;;4.27;;
12267;SDS011;6196;48.398;11.736;2023-10-09T11:00:56;18.73;;;4.43;;
12267;SDS011;6196;48.398;11.736;2023-10-09T11:03:23;13.03;;;4.33;;
12267;SDS011;6196;48.398;11.736;2023-10-09T11:06:10;13.90;;;4.93;;
12267;SDS011;6196;48.398;11.736;2023-10-09T11:08:44;12.07;;;4.63;;
12267;SDS011;6196;48.398;11.736;2023-10-09T11:11:23;12.83;;;3.70;;
12267;SDS011;6196;48.398;11.736;2023-10-09T11:14:07;12.87;;;3.87;;
12267;SDS011;6196;48.398;11.736;2023-10-09T11:16:41;13.63;;;3.60;;
12267;SDS011;6196;48.398;11.736;2023-10-09T11:19:10;12.03;;;4.10;;
12267;SDS011;6196;48.398;11.736;2023-10-09T11:21:53;14.83;;;4.53;;
12267;SDS011;6196;48.398;11.736;2023-10-09T11:24:33;19.63;;;4.20;;
12267;SDS011;6196;48.398;11.736;2023-10-09T11:27:02;19.93;;;4.70;;
12267;SDS011;6196;48.398;11.736;2023-10-09T11:29:33;21.83;;;4.57;;
12267;SDS011;6196;48.398;11.736;2023-10-09T11:32:15;17.53;;;4.00;;
12267;SDS011;6196;48.398;11.736;2023-10-09T11:34:45;12.50;;;4.27;;
12267;SDS011;6196;48.398;11.736;2023-10-09T11:37:20;13.57;;;4.30;;
12267;SDS011;6196;48.398;11.736;2023-10-09T11:40:29;21.23;;;4.20;;
12267;SDS011;6196;48.398;11.736;2023-10-09T11:43:16;14.20;;;4.40;;
12267;SDS011;6196;48.398;11.736;2023-10-09T11:45:43;17.60;;;4.67;;
12267;SDS011;6196;48.398;11.736;2023-10-09T11:48:21;16.97;;;4.50;;
12267;SDS011;6196;48.398;11.736;2023-10-09T11:50:51;19.93;;;4.93;;
12267;SDS011;6196;48.398;11.736;2023-10-09T11:53:43;12.80;;;4.43;;
12267;SDS011;6196;48.398;11.736;2023-10-09T11:56:15;14.13;;;4.13;;
12267;SDS011;6196;48.398;11.736;2023-10-09T11:58:49;15.50;;;4.13;;
12267;SDS011;6196;48.398;11.736;2023-10-09T12:01:17;21.00;;;4.60;;
12267;SDS011;6196;48.398;11.736;2023-10-09T12:03:46;17.27;;;4.60;;
12267;SDS011;6196;48.398;11.736;2023-10-09T12:06:18;16.00;;;4.53;;
12267;SDS011;6196;48.398;11.736;2023-10-09T12:08:48;14.90;;;4.00;;
12267;SDS011;6196;48.398;11.736;2023-10-09T12:11:15;14.17;;;4.20;;
12267;SDS011;6196;48.398;11.736;2023-10-09T12:13:57;15.30;;;4.47;;
12267;SDS011;6196;48.398;11.736;2023-10-09T12:16:27;17.53;;;4.87;;
12267;SDS011;6196;48.398;11.736;2023-10-09T12:18:55;17.07;;;4.77;;
12267;SDS011;6196;48.398;11.736;2023-10-09T12:21:23;19.60;;;4.50;;
12267;SDS011;6196;48.398;11.736;2023-10-09T12:23:54;13.73;;;3.80;;
12267;SDS011;6196;48.398;11.736;2023-10-09T12:26:28;15.60;;;3.90;;
12267;SDS011;6196;48.398;11.736;2023-10-09T12:29:01;15.23;;;4.37;;
12267;SDS011;6196;48.398;11.736;2023-10-09T12:31:27;23.80;;;4.67;;
12267;SDS011;6196;48.398;11.736;2023-10-09T12:34:00;17.20;;;4.87;;
12267;SDS011;6196;48.398;11.736;2023-10-09T12:36:27;14.17;;;4.43;;
12267;SDS011;6196;48.398;11.736;2023-10-09T12:38:55;18.53;;;5.40;;
12267;SDS011;6196;48.398;11.736;2023-10-09T12:41:25;19.47;;;5.20;;
12267;SDS011;6196;48.398;11.736;2023-10-09T12:43:59;24.97;;;4.70;;
12267;SDS011;6196;48.398;11.736;2023-10-09T12:46:27;19.93;;;4.60;;
12267;SDS011;6196;48.398;11.736;2023-10-09T12:48:59;18.63;;;5.00;;
12267;SDS011;6196;48.398;11.736;2023-10-09T12:51:27;17.27;;;5.00;;
12267;SDS011;6196;48.398;11.736;2023-10-09T12:53:57;15.17;;;4.10;;
12267;SDS011;6196;48.398;11.736;2023-10-09T12:56:25;18.23;;;4.70;;
12267;SDS011;6196;48.398;11.736;2023-10-09T12:59:05;19.83;;;4.73;;
12267;SDS011;6196;48.398;11.736;2023-10-09T13:01:34;19.77;;;5.30;;
12267;SDS011;6196;48.398;11.736;2023-10-09T13:04:10;20.27;;;4.70;;
12267;SDS011;6196;48.398;11.736;2023-10-09T13:06:41;13.53;;;4.27;;
12267;SDS011;6196;48.398;11.736;2023-10-09T13:09:13;17.07;;;4.83;;
12267;SDS011;6196;48.398;11.736;2023-10-09T13:11:42;14.10;;;4.47;;
12267;SDS011;6196;48.398;11.736;2023-10-09T13:14:10;19.20;;;4.77;;
12267;SDS011;6196;48.398;11.736;2023-10-09T13:16:44;16.23;;;4.27;;
12267;SDS011;6196;48.398;11.736;2023-10-09T13:19:12;16.57;;;4.17;;
12267;SDS011;6196;48.398;11.736;2023-10-09T13:21:39;15.80;;;4.20;;
12267;SDS011;6196;48.398;11.736;2023-10-09T13:24:06;17.10;;;4.23;;
12267;SDS011;6196;48.398;11.736;2023-10-09T13:26:40;11.37;;;4.10;;
12267;SDS011;6196;48.398;11.736;2023-10-09T13:29:09;17.07;;;4.63;;
12267;SDS011;6196;48.398;11.736;2023-10-09T13:31:38;16.10;;;4.67;;
12267;SDS011;6196;48.398;11.736;2023-10-09T13:34:06;15.40;;;4.23;;
12267;SDS011;6196;48.398;11.736;2023-10-09T13:36:36;14.60;;;4.33;;
12267;SDS011;6196;48.398;11.736;2023-10-09T13:39:04;16.20;;;5.10;;
12267;SDS011;6196;48.398;11.736;2023-10-09T13:41:49;16.17;;;4.83;;
12267;SDS011;6196;48.398;11.736;2023-10-09T13:46:55;21.03;;;5.10;;
12267;SDS011;6196;48.398;11.736;2023-10-09T13:49:32;15.50;;;5.20;;
12267;SDS011;6196;48.398;11.736;2023-10-09T13:52:00;19.27;;;4.47;;
12267;SDS011;6196;48.398;11.736;2023-10-09T13:54:29;14.73;;;5.03;;
12267;SDS011;6196;48.398;11.736;2023-10-09T13:57:06;16.37;;;5.13;;
12267;SDS011;6196;48.398;11.736;2023-10-09T13:59:34;20.07;;;4.93;;
12267;SDS011;6196;48.398;11.736;2023-10-09T14:02:02;20.70;;;4.87;;
12267;SDS011;6196;48.398;11.736;2023-10-09T14:04:43;19.03;;;5.17;;
12267;SDS011;6196;48.398;11.736;2023-10-09T14:07:14;17.13;;;5.10;;
12267;SDS011;6196;48.398;11.736;2023-10-09T14:09:46;21.73;;;5.47;;
12267;SDS011;6196;48.398;11.736;2023-10-09T14:12:33;17.07;;;4.83;;
12267;SDS011;6196;48.398;11.736;2023-10-09T14:15:00;15.93;;;4.80;;
12267;SDS011;6196;48.398;11.736;2023-10-09T14:17:30;18.23;;;4.80;;
12267;SDS011;6196;48.398;11.736;2023-10-09T14:19:57;15.93;;;4.20;;
12267;SDS011;6196;48.398;11.736;2023-10-09T14:22:44;23.17;;;4.70;;
12267;SDS011;6196;48.398;11.736;2023-10-09T14:25:12;13.50;;;4.47;;
12267;SDS011;6196;48.398;11.736;2023-10-09T14:27:41;19.77;;;4.93;;
12267;SDS011;6196;48.398;11.736;2023-10-09T14:30:08;18.57;;;4.87;;
12267;SDS011;6196;48.398;11.736;2023-10-09T14:32:45;14.97;;;4.77;;
12267;SDS011;6196;48.398;11.736;2023-10-09T14:35:18;18.10;;;5.47;;
12267;SDS011;6196;48.398;11.736;2023-10-09T14:37:48;15.77;;;4.50;;
12267;SDS011;6196;48.398;11.736;2023-10-09T14:40:15;14.07;;;4.17;;
12267;SDS011;6196;48.398;11.736;2023-10-09T14:42:47;17.07;;;4.80;;
12267;SDS011;6196;48.398;11.736;2023-10-09T14:45:21;18.53;;;4.73;;
12267;SDS011;6196;48.398;11.736;2023-10-09T14:47:52;16.50;;;4.37;;
12267;SDS011;6196;48.398;11.736;2023-10-09T14:50:20;18.83;;;4.50;;
12267;SDS011;6196;48.398;11.736;2023-10-09T14:52:49;15.63;;;4.40;;
12267;SDS011;6196;48.398;11.736;2023-10-09T14:55:19;13.90;;;4.70;;
12267;SDS011;6196;48.398;11.736;2023-10-09T14:57:55;15.60;;;4.50;;
12267;SDS011;6196;48.398;11.736;2023-10-09T15:00:22;14.27;;;4.50;;
12267;SDS011;6196;48.398;11.736;2023-10-09T15:02:50;17.87;;;5.47;;
12267;SDS011;6196;48.398;11.736;2023-10-09T15:05:19;15.23;;;4.33;;
12267;SDS011;6196;48.398;11.736;2023-10-09T15:07:49;14.97;;;4.70;;
12267;SDS011;6196;48.398;11.736;2023-10-09T15:10:16;16.03;;;4.40;;
12267;SDS011;6196;48.398;11.736;2023-10-09T15:12:44;14.00;;;4.00;;
12267;SDS011;6196;48.398;11.736;2023-10-09T15:15:15;19.63;;;5.00;;
12267;SDS011;6196;48.398;11.736;2023-10-09T15:17:43;19.80;;;5.07;;
12267;SDS011;6196;48.398;11.736;2023-10-09T15:20:14;14.90;;;4.20;;
12267;SDS011;6196;48.398;11.736;2023-10-09T15:22:42;14.50;;;4.63;;
12267;SDS011;6196;48.398;11.736;2023-10-09T15:25:10;16.77;;;4.93;;
12267;SDS011;6196;48.398;11.736;2023-10-09T15:27:42;16.57;;;4.60;;
12267;SDS011;6196;48.398;11.736;2023-10-09T15:30:10;17.57;;;4.40;;
12267;SDS011;6196;48.398;11.736;2023-10-09T15:32:40;11.87;;;4.50;;
12267;SDS011;6196;48.398;11.736;2023-10-09T15:35:08;17.13;;;4.40;;
12267;SDS011;6196;48.398;11.736;2023-10-09T15:37:36;12.53;;;4.80;;
12267;SDS011;6196;48.398;11.736;2023-10-09T15:40:04;13.23;;;4.03;;
12267;SDS011;6196;48.398;11.736;2023-10-09T15:42:32;15.00;;;5.00;;
12267;SDS011;6196;48.398;11.736;2023-10-09T15:45:04;20.47;;;7.87;;
12267;SDS011;6196;48.398;11.736;2023-10-09T15:47:33;16.03;;;7.73;;